Time;durP1;ratioP1;P1;durP2;ratioP2;P2;SDS_P1;SDS_P2;PMS_P1;PMS_P2;Temp;Humidity;BMP_temperature;BMP_pressure;BME280_temperature;BME280_humidity;BME280_pressure;Samples;Min_cycle;Max_cycle;Signal;HPM_P1;HPM_P2
2023/06/12 00:01:09;;;;;;;14.25;4.00;;;22.10;58.80;;;;;;5071123;28;20466;-87
2023/06/12 00:03:35;;;;;;;10.73;3.75;;;22.10;59.00;;;;;;5071292;28;20044;-86
2023/06/12 00:06:01;;;;;;;10.02;4.00;;;22.00;59.00;;;;;;5071426;28;20033;-87
2023/06/12 00:08:33;;;;;;;11.15;3.92;;;22.00;59.40;;;;;;5071589;28;20394;-87
2023/06/12 00:10:59;;;;;;;9.88;4.20;;;21.90;59.30;;;;;;5070935;28;20041;-87
2023/06/12 00:13:25;;;;;;;9.73;3.95;;;21.90;59.50;;;;;;5071526;28;20047;-86
2023/06/12 00:15:51;;;;;;;10.45;4.18;;;21.90;59.60;;;;;;5054489;28;20410;-86
2023/06/12 00:18:17;;;;;;;8.70;3.70;;;21.80;59.70;;;;;;5071154;28;20127;-86
2023/06/12 00:20:43;;;;;;;7.75;3.63;;;21.80;59.80;;;;;;5054031;28;20132;-87
2023/06/12 00:23:12;;;;;;;8.93;3.65;;;21.70;59.90;;;;;;5054620;28;20044;-87
2023/06/12 00:25:38;;;;;;;7.63;3.80;;;21.70;60.00;;;;;;5054399;28;20091;-86
2023/06/12 00:28:03;;;;;;;10.18;3.85;;;21.70;60.10;;;;;;5071014;28;20044;-86
2023/06/12 00:30:30;;;;;;;9.35;3.63;;;21.60;60.20;;;;;;5070558;28;20042;-87
2023/06/12 00:32:55;;;;;;;9.55;3.63;;;21.60;60.30;;;;;;5070851;28;20046;-87
2023/06/12 00:35:21;;;;;;;9.52;3.72;;;21.60;60.50;;;;;;5053791;28;20462;-87
2023/06/12 00:37:47;;;;;;;9.60;3.33;;;21.60;60.50;;;;;;5054175;28;20032;-87
2023/06/12 00:40:13;;;;;;;9.52;3.80;;;21.50;60.60;;;;;;5053774;28;20043;-86
2023/06/12 00:42:49;;;;;;;11.25;3.65;;;21.50;60.70;;;;;;5070722;28;20037;-87
2023/06/12 00:45:16;;;;;;;10.15;3.67;;;21.50;61.60;;;;;;5054019;28;20048;-87
2023/06/12 00:47:45;;;;;;;10.43;4.00;;;21.40;61.00;;;;;;5070637;28;20119;-86
2023/06/12 00:50:12;;;;;;;9.52;3.47;;;21.40;61.00;;;;;;5070599;28;20502;-88
2023/06/12 00:52:45;;;;;;;11.18;3.58;;;21.30;61.20;;;;;;5054002;28;20036;-87
2023/06/12 00:55:14;;;;;;;10.40;3.83;;;21.30;61.40;;;;;;5070959;28;20040;-87
2023/06/12 00:57:41;;;;;;;10.30;3.78;;;21.20;61.60;;;;;;5053708;28;20062;-88
2023/06/12 01:00:12;;;;;;;10.93;3.92;;;21.20;61.80;;;;;;5070476;28;20028;-88
2023/06/12 01:02:45;;;;;;;9.45;3.92;;;21.20;61.80;;;;;;5053779;28;20043;-88
2023/06/12 01:05:19;;;;;;;9.15;3.78;;;21.10;62.00;;;;;;5070662;28;20044;-87
2023/06/12 01:07:55;;;;;;;7.85;3.28;;;21.10;62.10;;;;;;5053916;28;20074;-88
2023/06/12 01:10:30;;;;;;;10.32;3.60;;;21.00;62.20;;;;;;5070110;28;20036;-87
2023/06/12 01:12:59;;;;;;;10.02;3.85;;;21.00;62.40;;;;;;5053774;28;20052;-87
2023/06/12 01:15:24;;;;;;;10.75;4.00;;;20.90;62.40;;;;;;5070218;28;20037;-87
2023/06/12 01:17:50;;;;;;;13.35;3.85;;;20.90;62.50;;;;;;5070442;28;20047;-87
2023/06/12 01:20:17;;;;;;;12.05;3.65;;;20.90;62.80;;;;;;5069908;28;20068;-87
2023/06/12 01:22:54;;;;;;;10.45;4.10;;;20.90;62.90;;;;;;5070589;28;20079;-87
2023/06/12 01:25:50;;;;;;;10.52;3.80;;;20.80;63.10;;;;;;5070597;28;20033;-87
2023/06/12 01:28:53;;;;;;;10.35;3.55;;;20.80;63.20;;;;;;5053826;28;20513;-87
2023/06/12 01:31:25;;;;;;;10.30;3.80;;;20.70;63.30;;;;;;5069825;28;20037;-87
2023/06/12 01:34:02;;;;;;;9.82;3.45;;;20.70;63.50;;;;;;5070230;28;20044;-87
2023/06/12 01:36:32;;;;;;;9.63;3.97;;;20.60;63.50;;;;;;5070482;28;20045;-87
2023/06/12 01:39:00;;;;;;;8.75;3.55;;;20.60;63.80;;;;;;5053453;28;20413;-87
2023/06/12 01:41:29;;;;;;;10.30;3.97;;;20.60;63.80;;;;;;5069804;28;20041;-87
2023/06/12 01:43:55;;;;;;;12.25;4.05;;;20.60;64.00;;;;;;5070211;28;20045;-87
2023/06/12 01:46:20;;;;;;;8.48;3.58;;;20.60;64.10;;;;;;5071573;28;20409;-86
2023/06/12 01:48:46;;;;;;;7.85;3.72;;;20.50;64.10;;;;;;5057448;28;20044;-86
2023/06/12 01:51:12;;;;;;;12.32;3.45;;;20.50;64.40;;;;;;5073702;28;20704;-86
2023/06/12 01:53:37;;;;;;;10.52;3.78;;;20.40;64.30;;;;;;5057427;28;20043;-86
2023/06/12 01:56:03;;;;;;;11.52;3.92;;;20.40;64.50;;;;;;5074064;28;20386;-86
2023/06/12 01:58:28;;;;;;;9.82;3.92;;;20.40;64.70;;;;;;5073775;28;20051;-87
2023/06/12 02:00:55;;;;;;;12.02;3.58;;;20.30;64.80;;;;;;5073217;28;20040;-86
2023/06/12 02:03:23;;;;;;;9.10;3.58;;;20.30;65.70;;;;;;5057087;28;20036;-86
2023/06/12 02:05:51;;;;;;;12.68;4.05;;;20.20;65.10;;;;;;5073738;28;20040;-86
2023/06/12 02:08:17;;;;;;;9.13;3.60;;;20.20;65.30;;;;;;5057274;28;20047;-86
2023/06/12 02:10:43;;;;;;;9.98;3.30;;;20.20;65.40;;;;;;5073426;28;20036;-86
2023/06/12 02:13:08;;;;;;;7.70;3.55;;;20.10;65.60;;;;;;5073657;28;20462;-86
2023/06/12 02:15:34;;;;;;;9.77;4.07;;;20.10;66.40;;;;;;5073300;28;20048;-86
2023/06/12 02:18:00;;;;;;;8.50;3.83;;;20.10;66.00;;;;;;5073585;28;20036;-86
2023/06/12 02:20:26;;;;;;;9.93;3.40;;;20.00;65.90;;;;;;5073290;28;20490;-86
2023/06/12 02:22:51;;;;;;;10.98;4.00;;;20.00;66.20;;;;;;5073209;28;20456;-86
2023/06/12 02:25:17;;;;;;;9.52;3.63;;;20.00;66.30;;;;;;5073581;28;20029;-86
2023/06/12 02:27:42;;;;;;;10.07;3.88;;;19.90;66.40;;;;;;5056608;28;20040;-86
2023/06/12 02:30:08;;;;;;;7.70;3.40;;;19.90;66.60;;;;;;5056149;28;20040;-86
2023/06/12 02:32:35;;;;;;;9.70;3.75;;;19.90;66.70;;;;;;5056285;28;20040;-86
2023/06/12 02:35:01;;;;;;;9.48;3.63;;;19.80;66.80;;;;;;5056419;28;20041;-86
2023/06/12 02:37:28;;;;;;;9.38;3.67;;;19.80;67.10;;;;;;5073019;28;20040;-86
2023/06/12 02:39:54;;;;;;;9.70;3.75;;;19.70;67.40;;;;;;5072658;28;20040;-86
2023/06/12 02:42:19;;;;;;;10.88;3.53;;;19.70;67.50;;;;;;5056424;28;20037;-86
2023/06/12 02:44:45;;;;;;;8.23;3.22;;;19.70;67.50;;;;;;5073049;28;20043;-86
2023/06/12 02:47:11;;;;;;;9.75;3.42;;;19.60;67.80;;;;;;5072928;28;20486;-86
2023/06/12 02:49:44;;;;;;;9.57;3.78;;;19.60;67.80;;;;;;5055670;28;20135;-86
2023/06/12 02:52:10;;;;;;;9.85;3.40;;;19.50;68.10;;;;;;5056236;28;20498;-86
2023/06/12 02:54:36;;;;;;;8.48;3.30;;;19.60;68.20;;;;;;5072669;28;20051;-86
2023/06/12 02:57:01;;;;;;;9.13;3.38;;;19.50;68.40;;;;;;5055478;28;20127;-86
2023/06/12 02:59:27;;;;;;;11.48;3.58;;;19.50;68.50;;;;;;5072243;28;20045;-86
2023/06/12 03:01:53;;;;;;;9.88;4.00;;;19.50;68.60;;;;;;5072505;28;20072;-86
2023/06/12 03:04:20;;;;;;;8.70;3.60;;;19.40;68.70;;;;;;5072949;28;20036;-86
2023/06/12 03:06:47;;;;;;;9.25;3.30;;;19.40;68.80;;;;;;5055939;28;20123;-86
2023/06/12 03:09:15;;;;;;;10.27;3.63;;;19.40;68.90;;;;;;5072797;28;20044;-86
2023/06/12 03:11:42;;;;;;;10.10;3.80;;;19.30;69.10;;;;;;5071898;28;20087;-86
2023/06/12 03:14:08;;;;;;;9.60;3.45;;;19.30;69.10;;;;;;5073578;28;20045;-86
2023/06/12 03:16:34;;;;;;;9.82;3.45;;;19.30;69.30;;;;;;5072272;28;20119;-86
2023/06/12 03:18:59;;;;;;;10.60;3.60;;;19.20;69.40;;;;;;5055641;28;20041;-86
2023/06/12 03:21:25;;;;;;;9.98;3.70;;;19.20;69.50;;;;;;5055243;28;20498;-86
2023/06/12 03:23:51;;;;;;;10.20;3.50;;;19.20;69.70;;;;;;5072130;28;20481;-86
2023/06/12 03:26:17;;;;;;;10.18;3.53;;;19.20;69.90;;;;;;5072008;28;20047;-87
2023/06/12 03:28:44;;;;;;;12.75;3.72;;;19.10;70.00;;;;;;5072156;28;20048;-85
2023/06/12 03:31:10;;;;;;;8.93;3.53;;;19.10;70.30;;;;;;5071820;28;20044;-86
2023/06/12 03:33:35;;;;;;;10.80;3.72;;;19.10;70.50;;;;;;5072067;28;20052;-86
2023/06/12 03:36:01;;;;;;;9.65;3.47;;;19.00;70.50;;;;;;5072036;28;20076;-86
2023/06/12 03:38:27;;;;;;;7.65;3.40;;;19.00;70.60;;;;;;5071816;28;20036;-86
2023/06/12 03:40:52;;;;;;;11.68;4.13;;;19.00;70.90;;;;;;5072785;28;20036;-86
2023/06/12 03:43:18;;;;;;;11.48;3.88;;;18.90;71.10;;;;;;5071734;28;20390;-86
2023/06/12 03:45:43;;;;;;;12.30;3.90;;;18.90;71.30;;;;;;5073137;28;20037;-86
2023/06/12 03:48:09;;;;;;;9.50;3.88;;;18.90;71.40;;;;;;5071955;28;20040;-85
2023/06/12 03:50:35;;;;;;;8.48;3.90;;;18.90;71.40;;;;;;5054891;28;20517;-86
2023/06/12 03:53:00;;;;;;;9.88;3.88;;;18.90;71.60;;;;;;5071717;28;20513;-86
2023/06/12 03:55:26;;;;;;;8.57;3.72;;;18.90;71.60;;;;;;5054577;28;20047;-86
2023/06/12 03:57:51;;;;;;;9.90;4.10;;;18.90;71.70;;;;;;5071436;28;20041;-86
2023/06/12 04:00:19;;;;;;;10.00;3.90;;;18.90;71.90;;;;;;5054462;28;20121;-86
2023/06/12 04:02:45;;;;;;;9.27;3.78;;;18.90;72.00;;;;;;5071717;28;20058;-86
2023/06/12 04:05:11;;;;;;;8.88;3.95;;;18.90;72.10;;;;;;5054872;28;20115;-86
2023/06/12 04:07:36;;;;;;;10.63;3.70;;;18.90;72.20;;;;;;5071270;28;20439;-86
2023/06/12 04:10:03;;;;;;;8.98;3.85;;;18.90;72.20;;;;;;5071467;28;20036;-86
2023/06/12 04:12:29;;;;;;;10.95;4.10;;;18.90;72.50;;;;;;5054221;28;20036;-86
2023/06/12 04:14:55;;;;;;;7.88;3.40;;;18.80;72.70;;;;;;5071241;28;20086;-86
2023/06/12 04:17:21;;;;;;;13.68;4.10;;;18.80;72.90;;;;;;5072467;28;20452;-86
2023/06/12 04:19:49;;;;;;;10.23;3.85;;;18.90;72.80;;;;;;5054038;28;20497;-86
2023/06/12 04:22:16;;;;;;;7.97;3.70;;;18.90;72.80;;;;;;5071022;28;20635;-86
2023/06/12 04:24:42;;;;;;;10.95;4.05;;;18.90;73.00;;;;;;5070839;28;20055;-86
2023/06/12 04:27:11;;;;;;;10.07;3.85;;;18.90;73.00;;;;;;5054292;28;20032;-86
2023/06/12 04:29:42;;;;;;;9.52;3.60;;;18.90;73.20;;;;;;5053834;28;20036;-86
2023/06/12 04:32:09;;;;;;;9.95;3.90;;;18.90;73.40;;;;;;5070937;28;20048;-86
2023/06/12 04:34:40;;;;;;;11.82;4.28;;;18.90;73.40;;;;;;5053925;28;20051;-86
2023/06/12 04:37:11;;;;;;;13.35;4.05;;;18.90;73.50;;;;;;5070840;28;20705;-86
2023/06/12 04:39:40;;;;;;;8.75;4.00;;;18.90;73.90;;;;;;5053696;28;20040;-86
2023/06/12 04:42:08;;;;;;;10.90;4.32;;;18.90;74.30;;;;;;5054343;28;20133;-86
2023/06/12 04:44:35;;;;;;;13.30;4.57;;;18.90;74.60;;;;;;5070721;28;20043;-86
2023/06/12 04:47:11;;;;;;;9.73;4.43;;;18.90;75.20;;;;;;5070738;28;20040;-86
2023/06/12 04:49:40;;;;;;;9.80;4.75;;;18.90;75.80;;;;;;5053782;28;20048;-86
2023/06/12 04:52:07;;;;;;;11.52;4.20;;;18.90;76.60;;;;;;5054113;28;20398;-86
2023/06/12 04:54:35;;;;;;;10.25;4.22;;;18.90;76.70;;;;;;5070651;28;20043;-86
2023/06/12 04:57:12;;;;;;;15.15;4.85;;;18.90;76.70;;;;;;5070450;28;20088;-86
2023/06/12 04:59:42;;;;;;;10.57;4.30;;;18.80;77.10;;;;;;5070230;28;20084;-86
2023/06/12 05:02:08;;;;;;;10.18;4.68;;;18.80;77.60;;;;;;5067257;28;20040;-86
2023/06/12 05:04:38;;;;;;;11.95;4.70;;;18.80;77.90;;;;;;5068949;28;20041;-86
2023/06/12 05:07:14;;;;;;;10.18;4.55;;;18.90;78.20;;;;;;5069773;28;20123;-86
2023/06/12 05:09:40;;;;;;;10.45;4.70;;;18.90;78.80;;;;;;5069322;28;20128;-86
2023/06/12 05:12:06;;;;;;;8.82;4.68;;;18.90;79.50;;;;;;5069802;28;20036;-86
2023/06/12 05:14:38;;;;;;;9.23;4.88;;;18.90;79.80;;;;;;5069560;28;20742;-86
2023/06/12 05:17:04;;;;;;;14.57;5.38;;;19.00;80.00;;;;;;5069597;28;20506;-85
2023/06/12 05:19:29;;;;;;;9.07;4.90;;;19.00;80.60;;;;;;5052658;28;20043;-86
2023/06/12 05:21:55;;;;;;;9.43;5.07;;;19.00;80.80;;;;;;5076038;28;20519;-86
2023/06/12 05:24:20;;;;;;;11.05;4.75;;;19.10;81.20;;;;;;5076241;28;20044;-86
2023/06/12 05:26:46;;;;;;;12.30;5.15;;;19.20;81.20;;;;;;5059585;28;20047;-86
2023/06/12 05:29:12;;;;;;;11.88;5.18;;;19.20;81.60;;;;;;5075766;28;20517;-86
2023/06/12 05:31:37;;;;;;;10.15;5.10;;;19.20;81.40;;;;;;5075655;28;20040;-86
2023/06/12 05:34:03;;;;;;;10.88;5.43;;;19.30;81.90;;;;;;5076238;28;20045;-86
2023/06/12 05:36:29;;;;;;;9.57;4.57;;;19.30;81.30;;;;;;5076113;28;20127;-86
2023/06/12 05:38:54;;;;;;;11.65;5.28;;;19.40;81.20;;;;;;5076361;28;20083;-87
2023/06/12 05:41:20;;;;;;;11.50;4.97;;;19.50;82.00;;;;;;5076097;28;20055;-87
2023/06/12 05:43:46;;;;;;;11.10;5.90;;;19.50;81.90;;;;;;5076349;28;20406;-87
2023/06/12 05:46:13;;;;;;;12.90;5.10;;;19.60;82.30;;;;;;5076108;28;20062;-87
2023/06/12 05:48:39;;;;;;;10.65;4.65;;;19.70;82.60;;;;;;5075673;28;20041;-87
2023/06/12 05:51:07;;;;;;;12.70;4.93;;;19.70;82.40;;;;;;5058892;28;20473;-87
2023/06/12 05:53:33;;;;;;;10.60;5.47;;;19.80;81.70;;;;;;5075436;28;20401;-87
2023/06/12 05:55:59;;;;;;;9.45;4.80;;;19.90;82.30;;;;;;5058494;28;20043;-87
2023/06/12 05:58:25;;;;;;;12.18;5.43;;;19.90;81.40;;;;;;5075982;28;20040;-87
2023/06/12 06:00:52;;;;;;;11.48;5.25;;;20.00;81.70;;;;;;5059140;28;20501;-87
2023/06/12 06:03:19;;;;;;;9.85;4.90;;;20.10;81.30;;;;;;5076221;28;20158;-87
2023/06/12 06:05:46;;;;;;;11.02;4.88;;;20.20;80.90;;;;;;5059315;28;20037;-87
2023/06/12 06:08:12;;;;;;;11.80;4.75;;;20.20;80.80;;;;;;5059177;28;20052;-87
2023/06/12 06:10:38;;;;;;;12.40;5.38;;;20.30;80.70;;;;;;5075275;28;20040;-87
2023/06/12 06:13:04;;;;;;;12.55;5.70;;;20.40;80.30;;;;;;5075999;28;20044;-87
2023/06/12 06:15:30;;;;;;;11.35;5.40;;;20.50;79.10;;;;;;5076242;28;20123;-87
2023/06/12 06:17:57;;;;;;;13.07;5.03;;;20.50;78.40;;;;;;5059207;28;20637;-87
2023/06/12 06:20:22;;;;;;;11.68;5.38;;;20.60;78.10;;;;;;5059006;28;20086;-87
2023/06/12 06:22:48;;;;;;;10.85;5.47;;;20.70;78.90;;;;;;5076133;28;20040;-87
2023/06/12 06:25:15;;;;;;;13.05;5.30;;;20.70;78.60;;;;;;5075966;28;20076;-87
2023/06/12 06:27:41;;;;;;;13.15;5.20;;;20.80;78.50;;;;;;5058910;28;20041;-87
2023/06/12 06:30:07;;;;;;;10.98;5.25;;;20.90;78.00;;;;;;5075234;28;20120;-87
2023/06/12 06:32:32;;;;;;;12.07;5.18;;;21.00;77.70;;;;;;5072680;28;20119;-87
2023/06/12 06:34:58;;;;;;;12.10;5.30;;;21.10;77.20;;;;;;5072604;28;20127;-87
2023/06/12 06:37:23;;;;;;;12.02;5.40;;;21.20;76.70;;;;;;5071980;28;20040;-87
2023/06/12 06:39:49;;;;;;;11.95;5.00;;;21.20;75.50;;;;;;5054740;28;20058;-86
2023/06/12 06:42:15;;;;;;;10.70;5.32;;;21.30;75.40;;;;;;5072865;28;20036;-86
2023/06/12 06:44:40;;;;;;;10.30;5.00;;;21.40;75.80;;;;;;5055997;28;20510;-87
2023/06/12 06:47:10;;;;;;;11.40;4.90;;;21.40;75.50;;;;;;5055775;28;20037;-87
2023/06/12 06:49:35;;;;;;;11.80;5.10;;;21.50;75.00;;;;;;5072088;28;20046;-87
2023/06/12 06:52:01;;;;;;;13.60;5.15;;;21.60;75.40;;;;;;5072067;28;20127;-87
2023/06/12 06:54:27;;;;;;;10.38;5.05;;;21.70;73.90;;;;;;5072093;28;20098;-87
2023/06/12 06:56:52;;;;;;;11.25;5.22;;;21.80;73.80;;;;;;5072162;28;20574;-87
2023/06/12 06:59:18;;;;;;;13.43;5.15;;;21.90;73.40;;;;;;5072213;28;20044;-87
2023/06/12 07:01:43;;;;;;;12.63;5.20;;;21.90;72.80;;;;;;5055159;28;20124;-87
2023/06/12 07:04:09;;;;;;;12.18;5.07;;;22.00;72.80;;;;;;5071891;28;20497;-87
2023/06/12 07:06:35;;;;;;;11.00;5.28;;;22.10;72.30;;;;;;5055434;28;20068;-87
2023/06/12 07:09:01;;;;;;;9.40;5.10;;;22.20;72.00;;;;;;5054878;28;20048;-87
2023/06/12 07:11:27;;;;;;;10.85;5.18;;;22.20;71.50;;;;;;5071606;28;20557;-87
2023/06/12 07:13:53;;;;;;;8.20;4.47;;;22.30;71.60;;;;;;5054994;28;20047;-87
2023/06/12 07:16:19;;;;;;;8.70;4.75;;;22.40;72.40;;;;;;5055601;28;20041;-87
2023/06/12 07:18:45;;;;;;;9.13;4.82;;;22.50;72.00;;;;;;5053483;28;20040;-87
2023/06/12 07:21:10;;;;;;;10.82;5.45;;;22.60;71.70;;;;;;5071582;28;20036;-87
2023/06/12 07:23:36;;;;;;;12.70;5.15;;;22.60;71.90;;;;;;5072040;28;20036;-88
2023/06/12 07:26:02;;;;;;;14.73;5.57;;;22.70;70.40;;;;;;5071694;28;20036;-88
2023/06/12 07:28:28;;;;;;;10.48;4.75;;;22.80;70.10;;;;;;5071377;28;20170;-87
2023/06/12 07:30:54;;;;;;;12.60;5.10;;;22.90;70.20;;;;;;5070718;28;20040;-87
2023/06/12 07:33:19;;;;;;;10.43;4.88;;;22.90;70.00;;;;;;5055076;28;20075;-87
2023/06/12 07:35:45;;;;;;;11.90;5.00;;;23.00;70.20;;;;;;5055048;28;20513;-88
2023/06/12 07:38:12;;;;;;;10.95;5.57;;;23.10;69.90;;;;;;5071146;28;20086;-88
2023/06/12 07:40:38;;;;;;;11.38;5.18;;;23.20;69.20;;;;;;5054912;28;20040;-87
2023/06/12 07:43:04;;;;;;;11.32;4.78;;;23.20;69.20;;;;;;5070612;28;20040;-87
2023/06/12 07:45:30;;;;;;;11.52;5.22;;;23.40;68.70;;;;;;5071107;28;20569;-87
2023/06/12 07:47:57;;;;;;;11.98;5.75;;;23.40;68.70;;;;;;5070960;28;20254;-88
2023/06/12 07:50:23;;;;;;;10.75;5.45;;;23.50;68.40;;;;;;5070661;28;20075;-87
2023/06/12 07:52:49;;;;;;;11.63;5.43;;;23.60;68.60;;;;;;5070677;28;20044;-87
2023/06/12 07:55:16;;;;;;;10.63;5.15;;;23.60;67.50;;;;;;5069630;28;20032;-87
2023/06/12 07:57:41;;;;;;;12.55;4.97;;;23.70;68.00;;;;;;5071569;28;20078;-88
2023/06/12 08:00:08;;;;;;;11.60;5.05;;;23.80;67.90;;;;;;5070843;28;20072;-88
2023/06/12 08:02:35;;;;;;;10.65;4.90;;;23.90;68.40;;;;;;5055199;28;20051;-88
2023/06/12 08:05:03;;;;;;;11.63;5.47;;;24.00;69.10;;;;;;5071493;28;20139;-88
2023/06/12 08:07:30;;;;;;;11.65;5.25;;;24.00;68.00;;;;;;5071168;28;20040;-88
2023/06/12 08:09:56;;;;;;;10.10;5.50;;;24.10;68.20;;;;;;5054777;28;20044;-87
2023/06/12 08:12:21;;;;;;;10.13;5.40;;;24.20;67.40;;;;;;5071234;28;20504;-87
2023/06/12 08:14:48;;;;;;;10.52;5.20;;;24.20;67.20;;;;;;5071206;28;20033;-88
2023/06/12 08:17:15;;;;;;;11.98;5.30;;;24.30;67.40;;;;;;5054497;28;20042;-88
2023/06/12 08:19:41;;;;;;;10.13;4.95;;;24.40;67.10;;;;;;5070850;28;20047;-87
2023/06/12 08:22:07;;;;;;;11.02;4.75;;;24.40;67.20;;;;;;5054680;28;20402;-88
2023/06/12 08:24:36;;;;;;;12.52;5.00;;;24.50;67.20;;;;;;5054438;28;20137;-87
2023/06/12 08:27:03;;;;;;;11.50;4.82;;;24.60;67.20;;;;;;5071176;28;20039;-88
2023/06/12 08:29:28;;;;;;;11.48;5.43;;;24.70;67.30;;;;;;5070706;28;20093;-88
2023/06/12 08:31:55;;;;;;;9.35;4.93;;;24.70;67.30;;;;;;5071171;28;20044;-87
2023/06/12 08:34:25;;;;;;;10.23;5.20;;;24.80;66.80;;;;;;5051534;28;20041;-88
2023/06/12 08:36:52;;;;;;;11.38;5.20;;;24.90;66.70;;;;;;5070166;28;20105;-88
2023/06/12 08:39:18;;;;;;;10.20;5.05;;;25.00;66.20;;;;;;5070244;28;20048;-88
2023/06/12 08:41:52;;;;;;;10.07;5.15;;;25.00;65.60;;;;;;5070037;28;20033;-88
2023/06/12 08:44:23;;;;;;;10.05;5.55;;;25.20;65.60;;;;;;5070169;28;20040;-88
2023/06/12 08:46:54;;;;;;;10.90;5.57;;;25.20;65.30;;;;;;5070094;28;20405;-88
2023/06/12 08:49:20;;;;;;;9.85;5.50;;;25.30;65.10;;;;;;5071724;28;20040;-88
2023/06/12 08:51:49;;;;;;;8.70;5.25;;;25.40;64.90;;;;;;5069534;28;20117;-88
2023/06/12 08:54:15;;;;;;;10.65;5.20;;;25.50;65.80;;;;;;5069639;28;20044;-88
2023/06/12 08:56:45;;;;;;;10.40;4.78;;;25.50;64.00;;;;;;5069379;28;20128;-88
2023/06/12 08:59:11;;;;;;;8.75;5.47;;;25.60;63.70;;;;;;5070157;28;20413;-88
2023/06/12 09:01:38;;;;;;;12.48;5.40;;;25.70;63.60;;;;;;5053308;28;20048;-88
2023/06/12 09:04:09;;;;;;;11.70;5.10;;;25.70;63.80;;;;;;5071003;28;20395;-88
2023/06/12 09:06:37;;;;;;;11.85;6.32;;;25.80;63.30;;;;;;5069588;28;20045;-88
2023/06/12 09:09:04;;;;;;;10.68;5.22;;;25.90;62.50;;;;;;5068914;28;20040;-88
2023/06/12 09:11:30;;;;;;;11.98;5.45;;;26.00;62.60;;;;;;5068662;28;20063;-88
2023/06/12 09:14:01;;;;;;;10.82;5.40;;;26.10;62.40;;;;;;5049655;28;20410;-88
2023/06/12 09:16:27;;;;;;;9.93;5.30;;;26.20;61.60;;;;;;5034085;28;20045;-88
2023/06/12 09:18:54;;;;;;;10.05;5.65;;;26.20;60.60;;;;;;5050308;28;20052;-88
2023/06/12 09:21:24;;;;;;;10.88;6.60;;;26.30;60.40;;;;;;5033712;28;20169;-88
2023/06/12 09:23:51;;;;;;;9.43;5.80;;;26.40;59.30;;;;;;5050571;28;20075;-88
2023/06/12 09:26:21;;;;;;;9.20;5.57;;;26.50;58.80;;;;;;5051476;28;20045;-88
2023/06/12 09:28:50;;;;;;;10.35;6.22;;;26.50;57.70;;;;;;5033950;28;20056;-89
2023/06/12 09:31:16;;;;;;;10.55;5.93;;;26.60;57.80;;;;;;5053086;28;20040;-88
2023/06/12 09:33:43;;;;;;;8.63;5.40;;;26.70;58.30;;;;;;5070598;28;20473;-88
2023/06/12 09:36:13;;;;;;;9.75;5.88;;;26.80;57.40;;;;;;5053089;28;20047;-88
2023/06/12 09:38:39;;;;;;;9.90;6.20;;;26.80;57.90;;;;;;5069968;28;20033;-88
2023/06/12 09:41:07;;;;;;;11.73;6.97;;;26.90;57.10;;;;;;5070915;28;20041;-88
2023/06/12 09:43:33;;;;;;;12.82;5.85;;;27.00;57.00;;;;;;5070029;28;20067;-88
2023/06/12 09:46:06;;;;;;;12.30;6.68;;;27.10;57.10;;;;;;5070169;28;20119;-88
2023/06/12 09:48:36;;;;;;;10.52;6.82;;;27.20;56.70;;;;;;5069661;28;20079;-88
2023/06/12 09:51:07;;;;;;;12.85;6.65;;;27.30;56.40;;;;;;5069316;28;20059;-88
2023/06/12 09:53:38;;;;;;;11.23;5.85;;;27.40;55.80;;;;;;5069124;28;20090;-88
2023/06/12 09:56:08;;;;;;;12.48;6.00;;;27.50;56.20;;;;;;5086481;28;20051;-88
2023/06/12 09:58:36;;;;;;;10.07;5.97;;;27.60;54.60;;;;;;5069859;28;20078;-88
2023/06/12 10:01:05;;;;;;;11.32;6.22;;;27.60;51.60;;;;;;5069311;28;20104;-88
2023/06/12 10:03:35;;;;;;;8.30;5.70;;;27.60;52.60;;;;;;5069711;28;20032;-88
2023/06/12 10:06:03;;;;;;;8.88;5.38;;;27.70;51.10;;;;;;5069919;28;20168;-88
2023/06/12 10:08:30;;;;;;;10.15;5.85;;;27.80;50.10;;;;;;5073065;28;20417;-88
2023/06/12 10:10:56;;;;;;;9.05;5.65;;;27.90;50.00;;;;;;5073246;28;20040;-88
2023/06/12 10:13:24;;;;;;;9.32;5.97;;;27.90;49.40;;;;;;5073410;28;20607;-88
2023/06/12 10:15:50;;;;;;;11.10;6.35;;;28.00;49.30;;;;;;5074525;28;20055;-88
2023/06/12 10:18:17;;;;;;;11.60;6.40;;;28.10;49.80;;;;;;5073220;28;20087;-88
2023/06/12 10:20:44;;;;;;;10.43;5.93;;;28.20;49.90;;;;;;5072815;28;20127;-88
2023/06/12 10:23:11;;;;;;;13.52;6.47;;;28.20;50.20;;;;;;5056290;28;20048;-88
2023/06/12 10:25:37;;;;;;;9.85;5.85;;;28.20;49.30;;;;;;5073189;28;20528;-88
2023/06/12 10:28:04;;;;;;;9.55;5.45;;;28.20;49.40;;;;;;5072842;28;20036;-88
2023/06/12 10:30:30;;;;;;;8.93;5.38;;;28.20;50.00;;;;;;5072610;28;20045;-88
2023/06/12 10:33:08;;;;;;;9.15;6.20;;;28.20;50.00;;;;;;5072428;28;20394;-88
2023/06/12 10:35:34;;;;;;;10.90;6.15;;;28.30;51.40;;;;;;5072502;28;20051;-88
2023/06/12 10:38:00;;;;;;;8.68;6.10;;;28.50;49.40;;;;;;5056355;28;20405;-88
2023/06/12 10:40:29;;;;;;;10.35;7.05;;;28.60;49.70;;;;;;5071775;28;20041;-88
2023/06/12 10:42:54;;;;;;;9.73;6.60;;;28.70;47.30;;;;;;5073052;28;20036;-88
2023/06/12 10:45:28;;;;;;;10.80;6.82;;;28.80;47.30;;;;;;5056163;28;20036;-88
2023/06/12 10:48:06;;;;;;;10.27;7.03;;;28.90;46.20;;;;;;5072904;28;20032;-88
2023/06/12 10:50:41;;;;;;;9.98;6.72;;;28.90;45.90;;;;;;5072102;28;20047;-88
2023/06/12 10:53:12;;;;;;;9.45;6.28;;;29.00;46.30;;;;;;5055206;28;20049;-88
2023/06/12 10:55:38;;;;;;;9.38;6.40;;;29.00;46.50;;;;;;5055804;28;20051;-88
2023/06/12 10:58:06;;;;;;;10.45;6.45;;;29.10;46.00;;;;;;5073436;28;20040;-88
2023/06/12 11:00:37;;;;;;;10.40;6.57;;;29.20;46.00;;;;;;5073505;28;20040;-89
2023/06/12 11:03:10;;;;;;;9.85;6.22;;;29.20;45.50;;;;;;5055886;28;20037;-89
2023/06/12 11:05:36;;;;;;;9.43;6.57;;;29.30;46.20;;;;;;5055832;28;20119;-88
2023/06/12 11:08:07;;;;;;;11.48;7.75;;;29.40;46.70;;;;;;5072714;28;20083;-88
2023/06/12 11:10:34;;;;;;;11.25;7.25;;;29.40;46.40;;;;;;5055068;28;20041;-88
2023/06/12 11:13:00;;;;;;;11.20;6.50;;;29.30;46.40;;;;;;5072658;28;20066;-88
2023/06/12 11:15:26;;;;;;;9.48;6.60;;;29.30;46.50;;;;;;5071389;28;20078;-88
2023/06/12 11:17:52;;;;;;;10.30;6.25;;;29.30;46.20;;;;;;5069655;28;20044;-88
2023/06/12 11:20:20;;;;;;;9.88;6.30;;;29.40;46.40;;;;;;5054559;28;20485;-88
2023/06/12 11:22:47;;;;;;;10.25;6.47;;;29.50;45.70;;;;;;5069673;28;20120;-88
2023/06/12 11:25:13;;;;;;;10.18;6.53;;;29.70;46.30;;;;;;5055138;28;20123;-88
2023/06/12 11:27:39;;;;;;;9.52;6.28;;;29.70;45.00;;;;;;5071627;28;20033;-88
2023/06/12 11:30:13;;;;;;;10.77;6.47;;;29.80;43.90;;;;;;5054738;28;20051;-88
2023/06/12 11:32:40;;;;;;;10.15;5.68;;;29.90;45.10;;;;;;5086950;28;20040;-88
2023/06/12 11:35:09;;;;;;;10.30;6.57;;;30.10;45.00;;;;;;5071752;28;20064;-88
2023/06/12 11:37:38;;;;;;;10.23;6.30;;;30.20;46.00;;;;;;5068951;28;20036;-88
2023/06/12 11:40:09;;;;;;;8.88;5.80;;;30.30;45.10;;;;;;5085789;28;20036;-88
2023/06/12 11:42:36;;;;;;;9.48;6.70;;;30.40;43.80;;;;;;5054869;28;20040;-88
2023/06/12 11:45:02;;;;;;;10.32;6.13;;;30.50;42.80;;;;;;5071305;28;20029;-88
2023/06/12 11:47:28;;;;;;;10.60;6.38;;;30.50;44.60;;;;;;5052061;28;20051;-88
2023/06/12 11:49:54;;;;;;;10.48;6.53;;;30.60;43.10;;;;;;5051601;28;20041;-88
2023/06/12 11:52:23;;;;;;;9.32;6.25;;;30.70;42.80;;;;;;5054729;28;20105;-88
2023/06/12 11:55:03;;;;;;;9.70;5.82;;;30.80;42.00;;;;;;5072232;28;20043;-88
2023/06/12 11:57:30;;;;;;;11.00;7.28;;;30.80;42.70;;;;;;5059834;28;20036;-88
2023/06/12 11:59:59;;;;;;;10.43;6.50;;;30.90;42.20;;;;;;5070668;28;20166;-88
2023/06/12 12:02:31;;;;;;;9.73;6.18;;;30.90;41.50;;;;;;5054456;28;20028;-88
2023/06/12 12:04:58;;;;;;;11.27;6.13;;;30.90;41.90;;;;;;5079380;28;20048;-89
2023/06/12 12:07:24;;;;;;;9.68;5.53;;;30.90;41.80;;;;;;5072405;28;20044;-88
2023/06/12 12:10:06;;;;;;;10.35;6.30;;;30.90;41.60;;;;;;5070589;28;20494;-88
2023/06/12 12:12:51;;;;;;;8.68;5.47;;;30.90;41.70;;;;;;5068337;28;20037;-88
2023/06/12 12:15:21;;;;;;;12.15;5.88;;;30.90;42.10;;;;;;5069687;28;20414;-88
2023/06/12 12:17:47;;;;;;;10.07;5.88;;;31.10;42.40;;;;;;5053711;28;20044;-89
2023/06/12 12:20:18;;;;;;;10.60;6.32;;;31.10;42.30;;;;;;5051829;28;20029;-88
2023/06/12 12:22:50;;;;;;;9.02;5.95;;;31.30;43.20;;;;;;5072164;28;20060;-87
2023/06/12 12:25:18;;;;;;;9.57;6.03;;;31.40;44.10;;;;;;5069384;28;20158;-88
2023/06/12 12:27:45;;;;;;;12.05;6.15;;;31.40;43.00;;;;;;5071480;28;20040;-88
2023/06/12 12:30:14;;;;;;;9.70;6.50;;;31.50;42.90;;;;;;5053540;28;20037;-88
2023/06/12 12:32:41;;;;;;;9.25;5.75;;;31.50;42.40;;;;;;5070822;28;20052;-89
2023/06/12 12:35:07;;;;;;;9.10;5.82;;;31.60;41.90;;;;;;5054421;28;20072;-88
2023/06/12 12:37:33;;;;;;;9.85;6.15;;;31.60;41.70;;;;;;5071160;28;20040;-88
2023/06/12 12:39:58;;;;;;;9.05;5.68;;;31.70;41.90;;;;;;5070466;28;20054;-88
2023/06/12 12:42:25;;;;;;;9.35;6.43;;;31.70;41.00;;;;;;5071090;28;20406;-88